sensor_id;sensor_type;location;lat;lon;timestamp;P1;durP1;ratioP1;P2;durP2;ratioP2
549;SDS011;20066;48.764;9.176;2022-08-19T00:01:25;22.00;;;14.70;;
549;SDS011;20066;48.764;9.176;2022-08-19T00:03:56;22.77;;;14.90;;
549;SDS011;20066;48.764;9.176;2022-08-19T00:06:24;23.53;;;14.93;;
549;SDS011;20066;48.764;9.176;2022-08-19T00:08:52;24.60;;;14.53;;
549;SDS011;20066;48.764;9.176;2022-08-19T00:11:19;25.50;;;15.63;;
549;SDS011;20066;48.764;9.176;2022-08-19T00:13:51;26.13;;;15.30;;
549;SDS011;20066;48.764;9.176;2022-08-19T00:16:23;24.30;;;15.60;;
549;SDS011;20066;48.764;9.176;2022-08-19T00:18:52;22.17;;;14.83;;
549;SDS011;20066;48.764;9.176;2022-08-19T00:21:21;24.40;;;14.40;;
549;SDS011;20066;48.764;9.176;2022-08-19T00:23:49;25.70;;;14.47;;
549;SDS011;20066;48.764;9.176;2022-08-19T00:26:17;20.47;;;13.20;;
549;SDS011;20066;48.764;9.176;2022-08-19T00:28:44;22.10;;;15.07;;
549;SDS011;20066;48.764;9.176;2022-08-19T00:31:12;22.33;;;14.50;;
549;SDS011;20066;48.764;9.176;2022-08-19T00:33:43;21.93;;;14.90;;
549;SDS011;20066;48.764;9.176;2022-08-19T00:36:11;22.27;;;14.47;;
549;SDS011;20066;48.764;9.176;2022-08-19T00:38:39;20.87;;;13.40;;
549;SDS011;20066;48.764;9.176;2022-08-19T00:41:09;22.83;;;13.70;;
549;SDS011;20066;48.764;9.176;2022-08-19T00:43:39;23.50;;;14.60;;
549;SDS011;20066;48.764;9.176;2022-08-19T00:46:07;24.63;;;14.93;;
549;SDS011;20066;48.764;9.176;2022-08-19T00:48:35;21.50;;;13.83;;
549;SDS011;20066;48.764;9.176;2022-08-19T00:51:04;22.67;;;14.93;;
549;SDS011;20066;48.764;9.176;2022-08-19T00:53:33;24.67;;;15.70;;
549;SDS011;20066;48.764;9.176;2022-08-19T00:56:01;22.07;;;15.60;;
549;SDS011;20066;48.764;9.176;2022-08-19T00:58:33;20.73;;;13.67;;
549;SDS011;20066;48.764;9.176;2022-08-19T01:01:02;23.07;;;14.53;;
549;SDS011;20066;48.764;9.176;2022-08-19T01:03:31;23.93;;;14.77;;
549;SDS011;20066;48.764;9.176;2022-08-19T01:06:21;22.67;;;14.60;;
549;SDS011;20066;48.764;9.176;2022-08-19T01:08:49;21.80;;;14.97;;
549;SDS011;20066;48.764;9.176;2022-08-19T01:11:17;23.40;;;15.43;;
549;SDS011;20066;48.764;9.176;2022-08-19T01:13:44;25.03;;;15.20;;
549;SDS011;20066;48.764;9.176;2022-08-19T01:16:16;24.20;;;15.87;;
549;SDS011;20066;48.764;9.176;2022-08-19T01:18:44;20.97;;;14.20;;
549;SDS011;20066;48.764;9.176;2022-08-19T01:21:15;25.17;;;16.10;;
549;SDS011;20066;48.764;9.176;2022-08-19T01:23:49;21.40;;;13.37;;
549;SDS011;20066;48.764;9.176;2022-08-19T01:26:18;25.00;;;15.40;;
549;SDS011;20066;48.764;9.176;2022-08-19T01:28:50;24.40;;;15.27;;
549;SDS011;20066;48.764;9.176;2022-08-19T01:31:25;24.37;;;15.30;;
549;SDS011;20066;48.764;9.176;2022-08-19T01:33:58;24.13;;;14.90;;
549;SDS011;20066;48.764;9.176;2022-08-19T01:36:28;23.50;;;14.90;;
549;SDS011;20066;48.764;9.176;2022-08-19T01:39:00;25.00;;;15.53;;
549;SDS011;20066;48.764;9.176;2022-08-19T01:41:28;24.03;;;14.73;;
549;SDS011;20066;48.764;9.176;2022-08-19T01:43:56;22.53;;;14.57;;
549;SDS011;20066;48.764;9.176;2022-08-19T01:46:43;21.97;;;14.70;;
549;SDS011;20066;48.764;9.176;2022-08-19T01:49:13;24.00;;;14.97;;
549;SDS011;20066;48.764;9.176;2022-08-19T01:51:41;27.60;;;15.70;;
549;SDS011;20066;48.764;9.176;2022-08-19T01:54:11;26.03;;;15.80;;
549;SDS011;20066;48.764;9.176;2022-08-19T01:56:53;25.37;;;16.30;;
549;SDS011;20066;48.764;9.176;2022-08-19T01:59:24;23.87;;;15.90;;
549;SDS011;20066;48.764;9.176;2022-08-19T02:01:52;24.50;;;15.90;;
549;SDS011;20066;48.764;9.176;2022-08-19T02:04:20;25.10;;;16.53;;
549;SDS011;20066;48.764;9.176;2022-08-19T02:06:49;24.30;;;15.80;;
549;SDS011;20066;48.764;9.176;2022-08-19T02:09:18;27.80;;;16.80;;
549;SDS011;20066;48.764;9.176;2022-08-19T02:11:46;25.23;;;16.23;;
549;SDS011;20066;48.764;9.176;2022-08-19T02:14:14;29.90;;;17.20;;
549;SDS011;20066;48.764;9.176;2022-08-19T02:16:42;26.67;;;17.00;;
549;SDS011;20066;48.764;9.176;2022-08-19T02:19:09;30.77;;;17.23;;
549;SDS011;20066;48.764;9.176;2022-08-19T02:21:37;26.63;;;16.73;;
549;SDS011;20066;48.764;9.176;2022-08-19T02:24:05;26.70;;;16.53;;
549;SDS011;20066;48.764;9.176;2022-08-19T02:26:34;32.43;;;17.63;;
549;SDS011;20066;48.764;9.176;2022-08-19T02:29:02;27.10;;;17.10;;
549;SDS011;20066;48.764;9.176;2022-08-19T02:31:31;31.20;;;18.80;;
549;SDS011;20066;48.764;9.176;2022-08-19T02:33:59;29.40;;;19.00;;
549;SDS011;20066;48.764;9.176;2022-08-19T02:36:27;30.30;;;19.10;;
549;SDS011;20066;48.764;9.176;2022-08-19T02:38:56;32.90;;;19.60;;
549;SDS011;20066;48.764;9.176;2022-08-19T02:41:23;31.63;;;20.10;;
549;SDS011;20066;48.764;9.176;2022-08-19T02:43:54;29.37;;;18.40;;
549;SDS011;20066;48.764;9.176;2022-08-19T02:46:44;28.30;;;18.77;;
549;SDS011;20066;48.764;9.176;2022-08-19T02:49:17;31.37;;;20.03;;
549;SDS011;20066;48.764;9.176;2022-08-19T02:51:45;32.10;;;19.37;;
549;SDS011;20066;48.764;9.176;2022-08-19T02:54:13;30.90;;;18.53;;
549;SDS011;20066;48.764;9.176;2022-08-19T02:56:42;31.80;;;19.70;;
549;SDS011;20066;48.764;9.176;2022-08-19T02:59:12;31.60;;;19.50;;
549;SDS011;20066;48.764;9.176;2022-08-19T03:01:40;38.37;;;19.53;;
549;SDS011;20066;48.764;9.176;2022-08-19T03:04:10;30.93;;;19.50;;
549;SDS011;20066;48.764;9.176;2022-08-19T03:06:40;33.23;;;20.20;;
549;SDS011;20066;48.764;9.176;2022-08-19T03:09:09;36.43;;;20.80;;
549;SDS011;20066;48.764;9.176;2022-08-19T03:11:38;35.20;;;21.37;;
549;SDS011;20066;48.764;9.176;2022-08-19T03:14:07;41.20;;;21.70;;
549;SDS011;20066;48.764;9.176;2022-08-19T03:16:41;36.97;;;22.00;;
549;SDS011;20066;48.764;9.176;2022-08-19T03:19:10;39.70;;;22.73;;
549;SDS011;20066;48.764;9.176;2022-08-19T03:21:38;31.00;;;20.80;;
549;SDS011;20066;48.764;9.176;2022-08-19T03:24:06;29.10;;;18.77;;
549;SDS011;20066;48.764;9.176;2022-08-19T03:26:38;39.57;;;21.97;;
549;SDS011;20066;48.764;9.176;2022-08-19T03:29:06;36.33;;;21.50;;
549;SDS011;20066;48.764;9.176;2022-08-19T03:31:39;36.37;;;20.93;;
549;SDS011;20066;48.764;9.176;2022-08-19T03:34:19;36.83;;;21.40;;
549;SDS011;20066;48.764;9.176;2022-08-19T03:36:48;37.50;;;21.40;;
549;SDS011;20066;48.764;9.176;2022-08-19T03:39:16;33.70;;;20.67;;
549;SDS011;20066;48.764;9.176;2022-08-19T03:41:45;36.93;;;21.50;;
549;SDS011;20066;48.764;9.176;2022-08-19T03:44:35;32.27;;;20.93;;
549;SDS011;20066;48.764;9.176;2022-08-19T03:47:05;37.17;;;22.43;;
549;SDS011;20066;48.764;9.176;2022-08-19T03:49:33;33.70;;;21.87;;
549;SDS011;20066;48.764;9.176;2022-08-19T03:52:02;37.67;;;21.83;;
549;SDS011;20066;48.764;9.176;2022-08-19T03:54:33;40.70;;;23.83;;
549;SDS011;20066;48.764;9.176;2022-08-19T03:57:02;36.13;;;23.33;;
549;SDS011;20066;48.764;9.176;2022-08-19T03:59:31;36.20;;;23.30;;
549;SDS011;20066;48.764;9.176;2022-08-19T04:02:01;39.50;;;22.27;;
549;SDS011;20066;48.764;9.176;2022-08-19T04:04:36;42.00;;;23.60;;
549;SDS011;20066;48.764;9.176;2022-08-19T04:07:05;40.83;;;23.97;;
549;SDS011;20066;48.764;9.176;2022-08-19T04:09:33;36.93;;;22.87;;
549;SDS011;20066;48.764;9.176;2022-08-19T04:12:02;35.90;;;23.57;;
549;SDS011;20066;48.764;9.176;2022-08-19T04:14:31;41.60;;;24.03;;
549;SDS011;20066;48.764;9.176;2022-08-19T04:17:00;41.53;;;24.17;;
549;SDS011;20066;48.764;9.176;2022-08-19T04:19:29;35.07;;;23.37;;
549;SDS011;20066;48.764;9.176;2022-08-19T04:22:00;36.37;;;22.47;;
549;SDS011;20066;48.764;9.176;2022-08-19T04:24:28;38.83;;;23.73;;
549;SDS011;20066;48.764;9.176;2022-08-19T04:26:55;37.80;;;22.93;;
549;SDS011;20066;48.764;9.176;2022-08-19T04:29:24;39.83;;;23.20;;
549;SDS011;20066;48.764;9.176;2022-08-19T04:31:53;39.00;;;23.60;;
549;SDS011;20066;48.764;9.176;2022-08-19T04:34:23;42.60;;;24.67;;
549;SDS011;20066;48.764;9.176;2022-08-19T04:36:53;41.10;;;22.90;;
549;SDS011;20066;48.764;9.176;2022-08-19T04:39:26;41.67;;;24.40;;
549;SDS011;20066;48.764;9.176;2022-08-19T04:42:16;38.70;;;24.17;;
549;SDS011;20066;48.764;9.176;2022-08-19T04:45:02;35.67;;;22.37;;
549;SDS011;20066;48.764;9.176;2022-08-19T04:47:34;37.57;;;23.30;;
549;SDS011;20066;48.764;9.176;2022-08-19T04:50:22;38.60;;;24.07;;
549;SDS011;20066;48.764;9.176;2022-08-19T04:52:51;38.87;;;23.73;;
549;SDS011;20066;48.764;9.176;2022-08-19T04:55:21;44.40;;;25.67;;
549;SDS011;20066;48.764;9.176;2022-08-19T04:57:49;40.97;;;24.90;;
549;SDS011;20066;48.764;9.176;2022-08-19T05:00:16;45.60;;;25.70;;
549;SDS011;20066;48.764;9.176;2022-08-19T05:02:44;41.10;;;26.10;;
549;SDS011;20066;48.764;9.176;2022-08-19T05:05:12;41.70;;;24.53;;
549;SDS011;20066;48.764;9.176;2022-08-19T05:07:40;42.07;;;24.93;;
549;SDS011;20066;48.764;9.176;2022-08-19T05:10:08;42.43;;;23.50;;
549;SDS011;20066;48.764;9.176;2022-08-19T05:12:39;47.60;;;24.87;;
549;SDS011;20066;48.764;9.176;2022-08-19T05:15:07;44.70;;;25.20;;
549;SDS011;20066;48.764;9.176;2022-08-19T05:17:35;43.80;;;25.40;;
549;SDS011;20066;48.764;9.176;2022-08-19T05:20:05;46.00;;;24.23;;
549;SDS011;20066;48.764;9.176;2022-08-19T05:22:51;38.73;;;24.10;;
549;SDS011;20066;48.764;9.176;2022-08-19T05:25:19;41.10;;;25.17;;
549;SDS011;20066;48.764;9.176;2022-08-19T05:27:50;36.20;;;23.57;;
549;SDS011;20066;48.764;9.176;2022-08-19T05:30:17;41.87;;;22.47;;
549;SDS011;20066;48.764;9.176;2022-08-19T05:33:05;39.83;;;23.87;;
549;SDS011;20066;48.764;9.176;2022-08-19T05:35:36;42.17;;;25.90;;
549;SDS011;20066;48.764;9.176;2022-08-19T05:38:04;47.27;;;25.00;;
549;SDS011;20066;48.764;9.176;2022-08-19T05:40:33;43.47;;;25.90;;
549;SDS011;20066;48.764;9.176;2022-08-19T05:43:05;49.37;;;26.27;;
549;SDS011;20066;48.764;9.176;2022-08-19T05:45:37;57.73;;;25.83;;
549;SDS011;20066;48.764;9.176;2022-08-19T05:48:06;42.97;;;25.77;;
549;SDS011;20066;48.764;9.176;2022-08-19T05:50:37;44.73;;;25.67;;
549;SDS011;20066;48.764;9.176;2022-08-19T05:53:06;39.30;;;24.67;;
549;SDS011;20066;48.764;9.176;2022-08-19T05:55:35;44.37;;;25.63;;
549;SDS011;20066;48.764;9.176;2022-08-19T05:58:05;40.53;;;25.17;;
549;SDS011;20066;48.764;9.176;2022-08-19T06:00:34;40.10;;;24.63;;
549;SDS011;20066;48.764;9.176;2022-08-19T06:03:02;38.10;;;24.60;;
549;SDS011;20066;48.764;9.176;2022-08-19T06:05:39;38.07;;;23.73;;
549;SDS011;20066;48.764;9.176;2022-08-19T06:08:17;53.43;;;23.70;;
549;SDS011;20066;48.764;9.176;2022-08-19T06:11:11;37.87;;;22.40;;
549;SDS011;20066;48.764;9.176;2022-08-19T06:13:42;39.73;;;25.63;;
549;SDS011;20066;48.764;9.176;2022-08-19T06:16:11;49.03;;;24.40;;
549;SDS011;20066;48.764;9.176;2022-08-19T06:18:39;51.00;;;25.73;;
549;SDS011;20066;48.764;9.176;2022-08-19T06:21:07;41.33;;;22.10;;
549;SDS011;20066;48.764;9.176;2022-08-19T06:23:34;35.87;;;22.77;;
549;SDS011;20066;48.764;9.176;2022-08-19T06:26:02;46.47;;;24.50;;
549;SDS011;20066;48.764;9.176;2022-08-19T06:28:30;48.70;;;23.90;;
549;SDS011;20066;48.764;9.176;2022-08-19T06:31:00;48.23;;;23.17;;
549;SDS011;20066;48.764;9.176;2022-08-19T06:33:33;45.47;;;24.63;;
549;SDS011;20066;48.764;9.176;2022-08-19T06:36:01;36.63;;;22.90;;
549;SDS011;20066;48.764;9.176;2022-08-19T06:38:29;39.33;;;23.33;;
549;SDS011;20066;48.764;9.176;2022-08-19T06:40:59;45.40;;;24.00;;
549;SDS011;20066;48.764;9.176;2022-08-19T06:43:33;38.10;;;23.13;;
549;SDS011;20066;48.764;9.176;2022-08-19T06:46:11;39.23;;;24.40;;
549;SDS011;20066;48.764;9.176;2022-08-19T06:48:40;48.33;;;25.10;;
549;SDS011;20066;48.764;9.176;2022-08-19T06:51:10;42.20;;;25.47;;
549;SDS011;20066;48.764;9.176;2022-08-19T06:53:44;42.57;;;25.50;;
549;SDS011;20066;48.764;9.176;2022-08-19T06:56:14;39.40;;;24.10;;
549;SDS011;20066;48.764;9.176;2022-08-19T06:58:43;43.27;;;26.10;;
549;SDS011;20066;48.764;9.176;2022-08-19T07:01:12;44.80;;;26.60;;
549;SDS011;20066;48.764;9.176;2022-08-19T07:03:40;43.30;;;25.50;;
549;SDS011;20066;48.764;9.176;2022-08-19T07:06:09;39.27;;;23.93;;
549;SDS011;20066;48.764;9.176;2022-08-19T07:09:01;43.50;;;24.83;;
549;SDS011;20066;48.764;9.176;2022-08-19T07:11:29;42.30;;;24.33;;
549;SDS011;20066;48.764;9.176;2022-08-19T07:13:59;37.73;;;23.63;;
549;SDS011;20066;48.764;9.176;2022-08-19T07:16:29;44.67;;;24.30;;
549;SDS011;20066;48.764;9.176;2022-08-19T07:18:58;37.93;;;23.47;;
549;SDS011;20066;48.764;9.176;2022-08-19T07:21:41;41.77;;;24.33;;
549;SDS011;20066;48.764;9.176;2022-08-19T07:24:09;37.10;;;22.97;;
549;SDS011;20066;48.764;9.176;2022-08-19T07:26:39;37.73;;;22.80;;
549;SDS011;20066;48.764;9.176;2022-08-19T07:29:09;39.77;;;23.53;;
549;SDS011;20066;48.764;9.176;2022-08-19T07:31:40;41.93;;;22.90;;
549;SDS011;20066;48.764;9.176;2022-08-19T07:34:10;37.00;;;23.23;;
549;SDS011;20066;48.764;9.176;2022-08-19T07:36:41;40.20;;;23.73;;
549;SDS011;20066;48.764;9.176;2022-08-19T07:39:10;40.33;;;23.70;;
549;SDS011;20066;48.764;9.176;2022-08-19T07:41:40;37.03;;;22.07;;
549;SDS011;20066;48.764;9.176;2022-08-19T07:44:09;37.23;;;22.67;;
549;SDS011;20066;48.764;9.176;2022-08-19T07:46:41;34.00;;;22.43;;
549;SDS011;20066;48.764;9.176;2022-08-19T07:49:13;36.73;;;22.00;;
549;SDS011;20066;48.764;9.176;2022-08-19T07:51:45;38.83;;;22.17;;
549;SDS011;20066;48.764;9.176;2022-08-19T07:54:15;37.90;;;21.47;;
549;SDS011;20066;48.764;9.176;2022-08-19T07:56:43;41.57;;;22.97;;
549;SDS011;20066;48.764;9.176;2022-08-19T07:59:11;38.47;;;21.50;;
549;SDS011;20066;48.764;9.176;2022-08-19T08:01:40;37.63;;;23.30;;
549;SDS011;20066;48.764;9.176;2022-08-19T08:04:08;36.77;;;21.97;;
549;SDS011;20066;48.764;9.176;2022-08-19T08:06:53;33.90;;;21.00;;
549;SDS011;20066;48.764;9.176;2022-08-19T08:09:40;34.83;;;21.67;;
549;SDS011;20066;48.764;9.176;2022-08-19T08:12:15;36.47;;;22.90;;
549;SDS011;20066;48.764;9.176;2022-08-19T08:15:00;34.00;;;21.73;;
549;SDS011;20066;48.764;9.176;2022-08-19T08:17:35;34.90;;;22.20;;
549;SDS011;20066;48.764;9.176;2022-08-19T08:20:17;34.93;;;22.87;;
549;SDS011;20066;48.764;9.176;2022-08-19T08:22:46;37.70;;;21.90;;
549;SDS011;20066;48.764;9.176;2022-08-19T08:25:32;37.70;;;20.73;;
549;SDS011;20066;48.764;9.176;2022-08-19T08:28:01;37.63;;;23.27;;
549;SDS011;20066;48.764;9.176;2022-08-19T08:30:30;37.40;;;23.53;;
549;SDS011;20066;48.764;9.176;2022-08-19T08:33:03;38.03;;;23.13;;
549;SDS011;20066;48.764;9.176;2022-08-19T08:35:32;37.90;;;23.00;;
549;SDS011;20066;48.764;9.176;2022-08-19T08:38:01;36.67;;;23.87;;
549;SDS011;20066;48.764;9.176;2022-08-19T08:40:33;35.93;;;23.10;;
549;SDS011;20066;48.764;9.176;2022-08-19T08:43:11;35.80;;;21.83;;
549;SDS011;20066;48.764;9.176;2022-08-19T08:45:51;37.37;;;23.23;;
549;SDS011;20066;48.764;9.176;2022-08-19T08:48:24;36.13;;;22.53;;
549;SDS011;20066;48.764;9.176;2022-08-19T08:51:00;37.13;;;21.87;;
549;SDS011;20066;48.764;9.176;2022-08-19T08:53:34;36.37;;;23.07;;
549;SDS011;20066;48.764;9.176;2022-08-19T08:56:08;37.93;;;22.63;;
549;SDS011;20066;48.764;9.176;2022-08-19T08:58:44;34.97;;;22.17;;
549;SDS011;20066;48.764;9.176;2022-08-19T09:01:20;36.63;;;22.53;;
549;SDS011;20066;48.764;9.176;2022-08-19T09:03:50;36.50;;;23.10;;
549;SDS011;20066;48.764;9.176;2022-08-19T09:06:19;34.67;;;22.80;;
549;SDS011;20066;48.764;9.176;2022-08-19T09:08:55;42.43;;;24.87;;
549;SDS011;20066;48.764;9.176;2022-08-19T09:11:40;33.40;;;21.53;;
549;SDS011;20066;48.764;9.176;2022-08-19T09:14:21;34.10;;;21.70;;
549;SDS011;20066;48.764;9.176;2022-08-19T09:17:16;31.80;;;21.20;;
549;SDS011;20066;48.764;9.176;2022-08-19T09:19:51;34.57;;;22.07;;
549;SDS011;20066;48.764;9.176;2022-08-19T09:22:21;36.57;;;22.57;;
549;SDS011;20066;48.764;9.176;2022-08-19T09:24:53;34.50;;;21.87;;
549;SDS011;20066;48.764;9.176;2022-08-19T09:27:21;32.43;;;21.00;;
549;SDS011;20066;48.764;9.176;2022-08-19T09:30:12;35.40;;;20.23;;
549;SDS011;20066;48.764;9.176;2022-08-19T09:32:42;36.33;;;21.80;;
549;SDS011;20066;48.764;9.176;2022-08-19T09:35:13;31.93;;;20.50;;
549;SDS011;20066;48.764;9.176;2022-08-19T09:37:41;33.53;;;20.10;;
549;SDS011;20066;48.764;9.176;2022-08-19T09:40:10;28.57;;;19.90;;
549;SDS011;20066;48.764;9.176;2022-08-19T09:42:40;32.77;;;20.87;;
549;SDS011;20066;48.764;9.176;2022-08-19T09:45:17;77.57;;;23.07;;
549;SDS011;20066;48.764;9.176;2022-08-19T09:47:48;36.83;;;20.20;;
549;SDS011;20066;48.764;9.176;2022-08-19T09:50:21;29.60;;;19.70;;
549;SDS011;20066;48.764;9.176;2022-08-19T09:52:50;33.67;;;20.63;;
549;SDS011;20066;48.764;9.176;2022-08-19T09:55:23;34.60;;;20.90;;
549;SDS011;20066;48.764;9.176;2022-08-19T09:57:57;27.57;;;18.20;;
549;SDS011;20066;48.764;9.176;2022-08-19T10:00:28;29.50;;;18.50;;
549;SDS011;20066;48.764;9.176;2022-08-19T10:02:57;27.30;;;18.27;;
549;SDS011;20066;48.764;9.176;2022-08-19T10:05:27;26.23;;;17.17;;
549;SDS011;20066;48.764;9.176;2022-08-19T10:08:14;26.10;;;16.37;;
549;SDS011;20066;48.764;9.176;2022-08-19T10:10:46;27.87;;;17.20;;
549;SDS011;20066;48.764;9.176;2022-08-19T10:13:15;26.30;;;16.60;;
549;SDS011;20066;48.764;9.176;2022-08-19T10:15:48;27.77;;;16.13;;
549;SDS011;20066;48.764;9.176;2022-08-19T10:18:17;23.40;;;17.10;;
549;SDS011;20066;48.764;9.176;2022-08-19T10:20:49;28.23;;;17.13;;
549;SDS011;20066;48.764;9.176;2022-08-19T10:23:19;29.63;;;16.70;;
549;SDS011;20066;48.764;9.176;2022-08-19T10:25:47;24.50;;;15.37;;
549;SDS011;20066;48.764;9.176;2022-08-19T10:28:16;23.90;;;15.30;;
549;SDS011;20066;48.764;9.176;2022-08-19T10:30:45;29.13;;;16.57;;
549;SDS011;20066;48.764;9.176;2022-08-19T10:33:14;27.77;;;16.43;;
549;SDS011;20066;48.764;9.176;2022-08-19T10:36:04;24.70;;;14.57;;
549;SDS011;20066;48.764;9.176;2022-08-19T10:38:34;26.07;;;15.00;;
549;SDS011;20066;48.764;9.176;2022-08-19T10:41:09;24.17;;;16.40;;
549;SDS011;20066;48.764;9.176;2022-08-19T10:43:38;27.10;;;16.40;;
549;SDS011;20066;48.764;9.176;2022-08-19T10:46:07;28.53;;;16.03;;
549;SDS011;20066;48.764;9.176;2022-08-19T10:48:41;23.20;;;15.93;;
549;SDS011;20066;48.764;9.176;2022-08-19T10:51:13;27.67;;;15.00;;
549;SDS011;20066;48.764;9.176;2022-08-19T10:53:59;21.43;;;15.27;;
549;SDS011;20066;48.764;9.176;2022-08-19T10:56:32;22.17;;;14.17;;
549;SDS011;20066;48.764;9.176;2022-08-19T10:59:19;22.57;;;14.40;;
549;SDS011;20066;48.764;9.176;2022-08-19T11:01:52;21.67;;;13.57;;
549;SDS011;20066;48.764;9.176;2022-08-19T11:04:22;21.53;;;13.10;;
549;SDS011;20066;48.764;9.176;2022-08-19T11:06:56;18.70;;;13.97;;
549;SDS011;20066;48.764;9.176;2022-08-19T11:09:24;18.47;;;13.50;;
549;SDS011;20066;48.764;9.176;2022-08-19T11:11:59;18.53;;;12.70;;
549;SDS011;20066;48.764;9.176;2022-08-19T11:14:30;19.70;;;12.80;;
549;SDS011;20066;48.764;9.176;2022-08-19T11:17:00;21.43;;;13.57;;
549;SDS011;20066;48.764;9.176;2022-08-19T11:19:28;20.87;;;12.90;;
549;SDS011;20066;48.764;9.176;2022-08-19T11:21:58;23.17;;;14.00;;
549;SDS011;20066;48.764;9.176;2022-08-19T11:24:29;22.10;;;12.70;;
549;SDS011;20066;48.764;9.176;2022-08-19T11:27:01;22.33;;;13.37;;
549;SDS011;20066;48.764;9.176;2022-08-19T11:29:31;25.37;;;12.80;;
549;SDS011;20066;48.764;9.176;2022-08-19T11:32:02;20.30;;;12.97;;
549;SDS011;20066;48.764;9.176;2022-08-19T11:34:31;19.63;;;12.17;;
549;SDS011;20066;48.764;9.176;2022-08-19T11:37:02;20.73;;;12.60;;
549;SDS011;20066;48.764;9.176;2022-08-19T11:39:32;22.50;;;11.60;;
549;SDS011;20066;48.764;9.176;2022-08-19T11:42:02;17.87;;;11.50;;
549;SDS011;20066;48.764;9.176;2022-08-19T11:44:51;16.97;;;11.77;;
549;SDS011;20066;48.764;9.176;2022-08-19T11:47:19;19.00;;;11.90;;
549;SDS011;20066;48.764;9.176;2022-08-19T11:49:48;18.20;;;11.60;;
549;SDS011;20066;48.764;9.176;2022-08-19T11:52:17;23.13;;;11.40;;
549;SDS011;20066;48.764;9.176;2022-08-19T11:54:44;24.43;;;11.80;;
549;SDS011;20066;48.764;9.176;2022-08-19T11:57:12;17.07;;;10.90;;
549;SDS011;20066;48.764;9.176;2022-08-19T11:59:47;16.77;;;12.03;;
549;SDS011;20066;48.764;9.176;2022-08-19T12:02:16;17.27;;;12.27;;
549;SDS011;20066;48.764;9.176;2022-08-19T12:04:43;16.67;;;11.90;;
549;SDS011;20066;48.764;9.176;2022-08-19T12:07:11;17.43;;;11.43;;
549;SDS011;20066;48.764;9.176;2022-08-19T12:09:40;15.33;;;11.10;;
549;SDS011;20066;48.764;9.176;2022-08-19T12:12:11;18.40;;;11.60;;
549;SDS011;20066;48.764;9.176;2022-08-19T12:14:38;17.70;;;10.80;;
549;SDS011;20066;48.764;9.176;2022-08-19T12:17:06;16.40;;;10.90;;
549;SDS011;20066;48.764;9.176;2022-08-19T12:19:35;17.00;;;11.53;;
549;SDS011;20066;48.764;9.176;2022-08-19T12:22:03;18.20;;;10.87;;
549;SDS011;20066;48.764;9.176;2022-08-19T12:24:33;17.20;;;11.07;;
549;SDS011;20066;48.764;9.176;2022-08-19T12:27:03;21.70;;;12.73;;
549;SDS011;20066;48.764;9.176;2022-08-19T12:29:37;19.13;;;11.43;;
549;SDS011;20066;48.764;9.176;2022-08-19T12:32:06;18.97;;;11.90;;
549;SDS011;20066;48.764;9.176;2022-08-19T12:34:37;16.37;;;11.30;;
549;SDS011;20066;48.764;9.176;2022-08-19T12:37:06;18.77;;;11.70;;
549;SDS011;20066;48.764;9.176;2022-08-19T12:39:35;17.73;;;12.07;;
549;SDS011;20066;48.764;9.176;2022-08-19T12:42:05;17.57;;;12.90;;
549;SDS011;20066;48.764;9.176;2022-08-19T12:44:35;18.77;;;11.77;;
549;SDS011;20066;48.764;9.176;2022-08-19T12:47:06;18.07;;;12.80;;
549;SDS011;20066;48.764;9.176;2022-08-19T12:49:36;20.83;;;12.67;;
549;SDS011;20066;48.764;9.176;2022-08-19T12:52:20;18.93;;;12.00;;
549;SDS011;20066;48.764;9.176;2022-08-19T12:54:50;19.27;;;11.60;;
549;SDS011;20066;48.764;9.176;2022-08-19T12:57:21;21.00;;;12.97;;
549;SDS011;20066;48.764;9.176;2022-08-19T12:59:58;18.23;;;11.90;;
549;SDS011;20066;48.764;9.176;2022-08-19T13:02:30;20.83;;;14.03;;
549;SDS011;20066;48.764;9.176;2022-08-19T13:05:05;24.70;;;15.13;;
549;SDS011;20066;48.764;9.176;2022-08-19T13:07:34;19.00;;;13.83;;
549;SDS011;20066;48.764;9.176;2022-08-19T13:10:03;23.30;;;14.70;;
549;SDS011;20066;48.764;9.176;2022-08-19T13:12:34;23.60;;;15.30;;
549;SDS011;20066;48.764;9.176;2022-08-19T13:15:02;25.47;;;16.60;;
549;SDS011;20066;48.764;9.176;2022-08-19T13:17:36;24.83;;;17.40;;
549;SDS011;20066;48.764;9.176;2022-08-19T13:20:05;26.57;;;17.00;;
549;SDS011;20066;48.764;9.176;2022-08-19T13:22:34;30.60;;;18.07;;
549;SDS011;20066;48.764;9.176;2022-08-19T13:25:03;32.57;;;17.97;;
549;SDS011;20066;48.764;9.176;2022-08-19T13:27:31;30.50;;;20.10;;
549;SDS011;20066;48.764;9.176;2022-08-19T13:30:02;39.33;;;22.40;;
549;SDS011;20066;48.764;9.176;2022-08-19T13:32:49;37.20;;;23.23;;
549;SDS011;20066;48.764;9.176;2022-08-19T13:35:35;38.53;;;23.80;;
549;SDS011;20066;48.764;9.176;2022-08-19T13:38:02;38.63;;;24.80;;
549;SDS011;20066;48.764;9.176;2022-08-19T13:40:37;37.67;;;23.30;;
549;SDS011;20066;48.764;9.176;2022-08-19T13:43:08;38.20;;;24.67;;
549;SDS011;20066;48.764;9.176;2022-08-19T13:45:48;42.80;;;25.63;;
549;SDS011;20066;48.764;9.176;2022-08-19T13:48:16;43.30;;;26.20;;
549;SDS011;20066;48.764;9.176;2022-08-19T13:50:44;50.40;;;28.30;;
549;SDS011;20066;48.764;9.176;2022-08-19T13:53:14;47.97;;;28.90;;
549;SDS011;20066;48.764;9.176;2022-08-19T13:55:44;46.70;;;28.60;;
549;SDS011;20066;48.764;9.176;2022-08-19T13:58:14;56.00;;;31.70;;
549;SDS011;20066;48.764;9.176;2022-08-19T14:00:43;55.60;;;32.50;;
549;SDS011;20066;48.764;9.176;2022-08-19T14:03:12;55.07;;;31.93;;
549;SDS011;20066;48.764;9.176;2022-08-19T14:05:40;52.80;;;29.83;;
549;SDS011;20066;48.764;9.176;2022-08-19T14:08:08;55.20;;;34.50;;
549;SDS011;20066;48.764;9.176;2022-08-19T14:10:36;62.30;;;33.07;;
549;SDS011;20066;48.764;9.176;2022-08-19T14:13:04;55.47;;;31.57;;
549;SDS011;20066;48.764;9.176;2022-08-19T14:15:33;59.83;;;33.10;;
549;SDS011;20066;48.764;9.176;2022-08-19T14:18:01;68.87;;;35.97;;
549;SDS011;20066;48.764;9.176;2022-08-19T14:20:29;55.20;;;32.10;;
549;SDS011;20066;48.764;9.176;2022-08-19T14:22:57;57.00;;;34.10;;
549;SDS011;20066;48.764;9.176;2022-08-19T14:25:26;57.67;;;30.73;;
549;SDS011;20066;48.764;9.176;2022-08-19T14:27:56;45.73;;;29.80;;
549;SDS011;20066;48.764;9.176;2022-08-19T14:30:25;50.27;;;30.63;;
549;SDS011;20066;48.764;9.176;2022-08-19T14:32:56;49.23;;;29.77;;
549;SDS011;20066;48.764;9.176;2022-08-19T14:35:25;45.70;;;28.07;;
549;SDS011;20066;48.764;9.176;2022-08-19T14:37:55;44.30;;;25.63;;
549;SDS011;20066;48.764;9.176;2022-08-19T14:40:25;43.97;;;26.80;;
549;SDS011;20066;48.764;9.176;2022-08-19T14:42:55;40.80;;;26.10;;
549;SDS011;20066;48.764;9.176;2022-08-19T14:45:30;39.57;;;24.80;;
549;SDS011;20066;48.764;9.176;2022-08-19T14:48:03;38.40;;;23.73;;
549;SDS011;20066;48.764;9.176;2022-08-19T14:50:32;38.40;;;25.10;;
549;SDS011;20066;48.764;9.176;2022-08-19T14:53:03;41.20;;;24.07;;
549;SDS011;20066;48.764;9.176;2022-08-19T14:55:40;39.43;;;22.50;;
549;SDS011;20066;48.764;9.176;2022-08-19T14:58:08;33.33;;;22.00;;
549;SDS011;20066;48.764;9.176;2022-08-19T15:00:55;31.33;;;21.27;;
549;SDS011;20066;48.764;9.176;2022-08-19T15:03:25;31.00;;;20.70;;
549;SDS011;20066;48.764;9.176;2022-08-19T15:05:54;35.50;;;22.30;;
549;SDS011;20066;48.764;9.176;2022-08-19T15:08:23;34.03;;;20.07;;
549;SDS011;20066;48.764;9.176;2022-08-19T15:10:52;26.90;;;18.83;;
549;SDS011;20066;48.764;9.176;2022-08-19T15:13:20;29.43;;;18.40;;